sensor_id;sensor_type;location;lat;lon;timestamp;P1;durP1;ratioP1;P2;durP2;ratioP2
48727;SDS011;34527;45.618;5.130;2023-12-22T00:01:40;4.78;;;2.90;;
48727;SDS011;34527;45.618;5.130;2023-12-22T00:04:06;6.35;;;2.97;;
48727;SDS011;34527;45.618;5.130;2023-12-22T00:06:32;4.85;;;3.33;;
48727;SDS011;34527;45.618;5.130;2023-12-22T00:08:58;8.02;;;4.80;;
48727;SDS011;34527;45.618;5.130;2023-12-22T00:11:23;5.85;;;4.45;;
48727;SDS011;34527;45.618;5.130;2023-12-22T00:13:49;5.68;;;3.20;;
48727;SDS011;34527;45.618;5.130;2023-12-22T00:16:15;4.07;;;2.70;;
48727;SDS011;34527;45.618;5.130;2023-12-22T00:18:40;2.97;;;1.50;;
48727;SDS011;34527;45.618;5.130;2023-12-22T00:21:09;2.47;;;1.35;;
48727;SDS011;34527;45.618;5.130;2023-12-22T00:23:36;2.45;;;1.30;;
48727;SDS011;34527;45.618;5.130;2023-12-22T00:26:02;3.22;;;1.45;;
48727;SDS011;34527;45.618;5.130;2023-12-22T00:28:28;3.58;;;0.80;;
48727;SDS011;34527;45.618;5.130;2023-12-22T00:30:54;1.48;;;0.77;;
48727;SDS011;34527;45.618;5.130;2023-12-22T00:33:20;4.82;;;1.30;;
48727;SDS011;34527;45.618;5.130;2023-12-22T00:35:45;7.18;;;1.42;;
48727;SDS011;34527;45.618;5.130;2023-12-22T00:38:11;4.43;;;1.10;;
48727;SDS011;34527;45.618;5.130;2023-12-22T00:40:37;7.35;;;2.53;;
48727;SDS011;34527;45.618;5.130;2023-12-22T00:43:02;6.40;;;1.60;;
48727;SDS011;34527;45.618;5.130;2023-12-22T00:45:28;2.72;;;0.95;;
48727;SDS011;34527;45.618;5.130;2023-12-22T00:47:53;3.95;;;1.00;;
48727;SDS011;34527;45.618;5.130;2023-12-22T00:50:19;4.25;;;1.02;;
48727;SDS011;34527;45.618;5.130;2023-12-22T00:52:44;2.83;;;0.85;;
48727;SDS011;34527;45.618;5.130;2023-12-22T00:55:10;5.75;;;1.80;;
48727;SDS011;34527;45.618;5.130;2023-12-22T00:57:36;6.78;;;1.77;;
48727;SDS011;34527;45.618;5.130;2023-12-22T01:00:01;4.45;;;1.45;;
48727;SDS011;34527;45.618;5.130;2023-12-22T01:02:29;5.88;;;1.58;;
48727;SDS011;34527;45.618;5.130;2023-12-22T01:04:55;7.53;;;2.33;;
48727;SDS011;34527;45.618;5.130;2023-12-22T01:07:20;9.27;;;2.78;;
48727;SDS011;34527;45.618;5.130;2023-12-22T01:09:46;5.28;;;1.52;;
48727;SDS011;34527;45.618;5.130;2023-12-22T01:12:12;5.95;;;1.50;;
48727;SDS011;34527;45.618;5.130;2023-12-22T01:14:37;5.72;;;1.50;;
48727;SDS011;34527;45.618;5.130;2023-12-22T01:17:03;6.70;;;1.40;;
48727;SDS011;34527;45.618;5.130;2023-12-22T01:19:28;4.00;;;1.40;;
48727;SDS011;34527;45.618;5.130;2023-12-22T01:21:54;4.40;;;1.17;;
48727;SDS011;34527;45.618;5.130;2023-12-22T01:24:19;2.63;;;1.15;;
48727;SDS011;34527;45.618;5.130;2023-12-22T01:26:45;4.85;;;1.38;;
48727;SDS011;34527;45.618;5.130;2023-12-22T01:29:11;5.78;;;1.45;;
48727;SDS011;34527;45.618;5.130;2023-12-22T01:31:36;3.97;;;1.10;;
48727;SDS011;34527;45.618;5.130;2023-12-22T01:34:02;5.78;;;1.23;;
48727;SDS011;34527;45.618;5.130;2023-12-22T01:36:27;3.53;;;0.90;;
48727;SDS011;34527;45.618;5.130;2023-12-22T01:38:53;6.88;;;1.30;;
48727;SDS011;34527;45.618;5.130;2023-12-22T01:41:18;7.93;;;1.40;;
48727;SDS011;34527;45.618;5.130;2023-12-22T01:43:44;3.92;;;1.17;;
48727;SDS011;34527;45.618;5.130;2023-12-22T01:46:10;5.28;;;1.20;;
48727;SDS011;34527;45.618;5.130;2023-12-22T01:48:37;3.92;;;1.38;;
48727;SDS011;34527;45.618;5.130;2023-12-22T01:51:03;5.55;;;1.33;;
48727;SDS011;34527;45.618;5.130;2023-12-22T01:53:30;4.20;;;1.38;;
48727;SDS011;34527;45.618;5.130;2023-12-22T01:55:57;4.53;;;0.88;;
48727;SDS011;34527;45.618;5.130;2023-12-22T01:58:25;5.25;;;1.45;;
48727;SDS011;34527;45.618;5.130;2023-12-22T02:00:55;6.22;;;2.63;;
48727;SDS011;34527;45.618;5.130;2023-12-22T02:03:21;7.10;;;3.10;;
48727;SDS011;34527;45.618;5.130;2023-12-22T02:05:47;6.95;;;3.08;;
48727;SDS011;34527;45.618;5.130;2023-12-22T02:08:13;7.75;;;2.95;;
48727;SDS011;34527;45.618;5.130;2023-12-22T02:10:42;5.47;;;2.10;;
48727;SDS011;34527;45.618;5.130;2023-12-22T02:13:09;8.15;;;3.28;;
48727;SDS011;34527;45.618;5.130;2023-12-22T02:15:35;8.75;;;4.60;;
48727;SDS011;34527;45.618;5.130;2023-12-22T02:20:46;11.30;;;4.22;;
48727;SDS011;34527;45.618;5.130;2023-12-22T02:23:13;6.82;;;3.60;;
48727;SDS011;34527;45.618;5.130;2023-12-22T02:25:38;6.45;;;2.80;;
48727;SDS011;34527;45.618;5.130;2023-12-22T02:28:07;10.25;;;3.20;;
48727;SDS011;34527;45.618;5.130;2023-12-22T02:33:04;8.55;;;1.80;;
48727;SDS011;34527;45.618;5.130;2023-12-22T02:35:32;18.88;;;2.03;;
48727;SDS011;34527;45.618;5.130;2023-12-22T02:38:00;4.43;;;1.65;;
48727;SDS011;34527;45.618;5.130;2023-12-22T02:40:28;9.20;;;1.83;;
48727;SDS011;34527;45.618;5.130;2023-12-22T02:42:54;5.10;;;1.40;;
48727;SDS011;34527;45.618;5.130;2023-12-22T02:45:20;6.13;;;1.75;;
48727;SDS011;34527;45.618;5.130;2023-12-22T02:47:46;6.45;;;1.55;;
48727;SDS011;34527;45.618;5.130;2023-12-22T02:50:13;7.18;;;1.70;;
48727;SDS011;34527;45.618;5.130;2023-12-22T02:52:40;5.60;;;1.80;;
48727;SDS011;34527;45.618;5.130;2023-12-22T02:55:06;4.53;;;1.40;;
48727;SDS011;34527;45.618;5.130;2023-12-22T02:57:32;6.25;;;1.33;;
48727;SDS011;34527;45.618;5.130;2023-12-22T02:59:57;5.85;;;1.27;;
48727;SDS011;34527;45.618;5.130;2023-12-22T03:02:23;6.88;;;1.35;;
48727;SDS011;34527;45.618;5.130;2023-12-22T03:04:49;8.35;;;1.40;;
48727;SDS011;34527;45.618;5.130;2023-12-22T03:07:15;6.10;;;1.45;;
48727;SDS011;34527;45.618;5.130;2023-12-22T03:09:41;4.95;;;1.30;;
48727;SDS011;34527;45.618;5.130;2023-12-22T03:12:07;5.05;;;1.40;;
48727;SDS011;34527;45.618;5.130;2023-12-22T03:14:33;6.10;;;1.63;;
48727;SDS011;34527;45.618;5.130;2023-12-22T03:16:59;7.70;;;1.50;;
48727;SDS011;34527;45.618;5.130;2023-12-22T03:19:25;8.48;;;1.40;;
48727;SDS011;34527;45.618;5.130;2023-12-22T03:21:51;4.85;;;1.90;;
48727;SDS011;34527;45.618;5.130;2023-12-22T03:24:17;7.10;;;1.80;;
48727;SDS011;34527;45.618;5.130;2023-12-22T03:26:47;6.95;;;2.10;;
48727;SDS011;34527;45.618;5.130;2023-12-22T03:29:13;7.10;;;1.88;;
48727;SDS011;34527;45.618;5.130;2023-12-22T03:31:39;4.22;;;1.33;;
48727;SDS011;34527;45.618;5.130;2023-12-22T03:34:05;3.78;;;1.40;;
48727;SDS011;34527;45.618;5.130;2023-12-22T03:36:30;4.00;;;1.33;;
48727;SDS011;34527;45.618;5.130;2023-12-22T03:38:56;5.03;;;1.48;;
48727;SDS011;34527;45.618;5.130;2023-12-22T03:41:21;4.68;;;1.70;;
48727;SDS011;34527;45.618;5.130;2023-12-22T03:43:47;10.45;;;3.85;;
48727;SDS011;34527;45.618;5.130;2023-12-22T03:46:13;4.25;;;1.90;;
48727;SDS011;34527;45.618;5.130;2023-12-22T03:48:38;4.32;;;1.80;;
48727;SDS011;34527;45.618;5.130;2023-12-22T03:51:04;2.15;;;1.25;;
48727;SDS011;34527;45.618;5.130;2023-12-22T03:53:29;2.83;;;1.20;;
48727;SDS011;34527;45.618;5.130;2023-12-22T03:55:55;6.53;;;1.75;;
48727;SDS011;34527;45.618;5.130;2023-12-22T03:58:21;2.05;;;1.10;;
48727;SDS011;34527;45.618;5.130;2023-12-22T04:00:46;2.47;;;1.13;;
48727;SDS011;34527;45.618;5.130;2023-12-22T04:03:12;3.13;;;1.00;;
48727;SDS011;34527;45.618;5.130;2023-12-22T04:05:38;1.08;;;0.80;;
48727;SDS011;34527;45.618;5.130;2023-12-22T04:08:04;3.38;;;0.90;;
48727;SDS011;34527;45.618;5.130;2023-12-22T04:10:30;3.78;;;0.95;;
48727;SDS011;34527;45.618;5.130;2023-12-22T04:12:56;5.03;;;1.10;;
48727;SDS011;34527;45.618;5.130;2023-12-22T04:15:22;1.45;;;1.00;;
48727;SDS011;34527;45.618;5.130;2023-12-22T04:17:47;2.92;;;1.17;;
48727;SDS011;34527;45.618;5.130;2023-12-22T04:20:14;2.70;;;0.90;;
48727;SDS011;34527;45.618;5.130;2023-12-22T04:22:40;3.10;;;0.88;;
48727;SDS011;34527;45.618;5.130;2023-12-22T04:25:06;4.55;;;1.25;;
48727;SDS011;34527;45.618;5.130;2023-12-22T04:27:32;2.80;;;1.05;;
48727;SDS011;34527;45.618;5.130;2023-12-22T04:29:58;1.67;;;1.00;;
48727;SDS011;34527;45.618;5.130;2023-12-22T04:32:24;2.05;;;1.00;;
48727;SDS011;34527;45.618;5.130;2023-12-22T04:34:50;3.88;;;1.10;;
48727;SDS011;34527;45.618;5.130;2023-12-22T04:37:15;4.20;;;1.17;;
48727;SDS011;34527;45.618;5.130;2023-12-22T04:39:41;2.40;;;1.30;;
48727;SDS011;34527;45.618;5.130;2023-12-22T04:42:06;5.35;;;1.10;;
48727;SDS011;34527;45.618;5.130;2023-12-22T04:44:32;3.22;;;1.13;;
48727;SDS011;34527;45.618;5.130;2023-12-22T04:46:58;4.97;;;1.75;;
48727;SDS011;34527;45.618;5.130;2023-12-22T04:49:23;5.70;;;1.42;;
48727;SDS011;34527;45.618;5.130;2023-12-22T04:51:49;5.05;;;1.10;;
48727;SDS011;34527;45.618;5.130;2023-12-22T04:54:14;4.43;;;1.38;;
48727;SDS011;34527;45.618;5.130;2023-12-22T04:56:40;2.47;;;0.98;;
48727;SDS011;34527;45.618;5.130;2023-12-22T04:59:06;5.47;;;1.50;;
48727;SDS011;34527;45.618;5.130;2023-12-22T05:01:31;4.82;;;1.20;;
48727;SDS011;34527;45.618;5.130;2023-12-22T05:03:57;5.32;;;1.20;;
48727;SDS011;34527;45.618;5.130;2023-12-22T05:06:22;8.35;;;1.58;;
48727;SDS011;34527;45.618;5.130;2023-12-22T05:08:48;7.70;;;1.27;;
48727;SDS011;34527;45.618;5.130;2023-12-22T05:11:13;5.63;;;1.35;;
48727;SDS011;34527;45.618;5.130;2023-12-22T05:13:39;3.10;;;1.10;;
48727;SDS011;34527;45.618;5.130;2023-12-22T05:16:07;3.40;;;1.20;;
48727;SDS011;34527;45.618;5.130;2023-12-22T05:18:32;6.10;;;1.45;;
48727;SDS011;34527;45.618;5.130;2023-12-22T05:20:58;5.07;;;1.40;;
48727;SDS011;34527;45.618;5.130;2023-12-22T05:23:23;7.25;;;1.33;;
48727;SDS011;34527;45.618;5.130;2023-12-22T05:25:49;5.25;;;1.38;;
48727;SDS011;34527;45.618;5.130;2023-12-22T05:28:14;6.95;;;1.95;;
48727;SDS011;34527;45.618;5.130;2023-12-22T05:30:40;10.90;;;1.88;;
48727;SDS011;34527;45.618;5.130;2023-12-22T05:33:06;5.78;;;1.90;;
48727;SDS011;34527;45.618;5.130;2023-12-22T05:35:31;5.32;;;1.80;;
48727;SDS011;34527;45.618;5.130;2023-12-22T05:37:57;2.70;;;1.20;;
48727;SDS011;34527;45.618;5.130;2023-12-22T05:40:22;6.57;;;1.88;;
48727;SDS011;34527;45.618;5.130;2023-12-22T05:42:48;5.85;;;1.40;;
48727;SDS011;34527;45.618;5.130;2023-12-22T05:45:14;9.50;;;2.17;;
48727;SDS011;34527;45.618;5.130;2023-12-22T05:47:40;6.45;;;1.98;;
48727;SDS011;34527;45.618;5.130;2023-12-22T05:50:06;5.40;;;1.65;;
48727;SDS011;34527;45.618;5.130;2023-12-22T05:52:32;7.93;;;1.70;;
48727;SDS011;34527;45.618;5.130;2023-12-22T05:54:58;5.75;;;1.73;;
48727;SDS011;34527;45.618;5.130;2023-12-22T05:57:26;6.47;;;1.90;;
48727;SDS011;34527;45.618;5.130;2023-12-22T05:59:52;5.85;;;1.70;;
48727;SDS011;34527;45.618;5.130;2023-12-22T06:02:18;7.43;;;1.70;;
48727;SDS011;34527;45.618;5.130;2023-12-22T06:04:43;8.68;;;1.83;;
48727;SDS011;34527;45.618;5.130;2023-12-22T06:07:10;8.05;;;1.85;;
48727;SDS011;34527;45.618;5.130;2023-12-22T06:09:36;7.22;;;2.15;;
48727;SDS011;34527;45.618;5.130;2023-12-22T06:12:01;10.02;;;2.70;;
48727;SDS011;34527;45.618;5.130;2023-12-22T06:14:27;8.00;;;1.77;;
48727;SDS011;34527;45.618;5.130;2023-12-22T06:16:53;15.82;;;2.05;;
48727;SDS011;34527;45.618;5.130;2023-12-22T06:19:21;9.25;;;1.90;;
48727;SDS011;34527;45.618;5.130;2023-12-22T06:21:49;5.53;;;2.08;;
48727;SDS011;34527;45.618;5.130;2023-12-22T06:24:14;5.65;;;1.58;;
48727;SDS011;34527;45.618;5.130;2023-12-22T06:26:41;9.27;;;2.03;;
48727;SDS011;34527;45.618;5.130;2023-12-22T06:29:07;6.43;;;1.75;;
48727;SDS011;34527;45.618;5.130;2023-12-22T06:31:32;13.52;;;2.38;;
48727;SDS011;34527;45.618;5.130;2023-12-22T06:33:58;10.95;;;2.30;;
48727;SDS011;34527;45.618;5.130;2023-12-22T06:36:27;8.68;;;2.10;;
48727;SDS011;34527;45.618;5.130;2023-12-22T06:38:53;7.40;;;1.95;;
48727;SDS011;34527;45.618;5.130;2023-12-22T06:43:45;13.25;;;2.40;;
48727;SDS011;34527;45.618;5.130;2023-12-22T06:46:15;12.13;;;2.60;;
48727;SDS011;34527;45.618;5.130;2023-12-22T06:48:44;13.30;;;2.78;;
48727;SDS011;34527;45.618;5.130;2023-12-22T06:51:23;10.65;;;2.38;;
48727;SDS011;34527;45.618;5.130;2023-12-22T06:53:51;9.57;;;2.22;;
48727;SDS011;34527;45.618;5.130;2023-12-22T06:58:49;6.60;;;1.80;;
48727;SDS011;34527;45.618;5.130;2023-12-22T07:01:19;12.57;;;2.42;;
48727;SDS011;34527;45.618;5.130;2023-12-22T07:03:49;11.07;;;2.72;;
48727;SDS011;34527;45.618;5.130;2023-12-22T07:06:18;6.50;;;2.35;;
48727;SDS011;34527;45.618;5.130;2023-12-22T07:11:36;6.85;;;2.78;;
48727;SDS011;34527;45.618;5.130;2023-12-22T07:14:02;11.70;;;2.13;;
48727;SDS011;34527;45.618;5.130;2023-12-22T07:16:28;13.05;;;2.25;;
48727;SDS011;34527;45.618;5.130;2023-12-22T07:18:53;7.38;;;2.13;;
48727;SDS011;34527;45.618;5.130;2023-12-22T07:21:19;8.82;;;2.40;;
48727;SDS011;34527;45.618;5.130;2023-12-22T07:23:45;10.00;;;2.08;;
48727;SDS011;34527;45.618;5.130;2023-12-22T07:26:11;9.45;;;2.30;;
48727;SDS011;34527;45.618;5.130;2023-12-22T07:28:36;7.63;;;1.80;;
48727;SDS011;34527;45.618;5.130;2023-12-22T07:31:02;6.05;;;1.85;;
48727;SDS011;34527;45.618;5.130;2023-12-22T07:33:27;10.75;;;2.00;;
48727;SDS011;34527;45.618;5.130;2023-12-22T07:35:53;8.45;;;1.90;;
48727;SDS011;34527;45.618;5.130;2023-12-22T07:38:19;6.53;;;1.98;;
48727;SDS011;34527;45.618;5.130;2023-12-22T07:40:45;3.05;;;1.60;;
48727;SDS011;34527;45.618;5.130;2023-12-22T07:43:11;8.82;;;2.05;;
48727;SDS011;34527;45.618;5.130;2023-12-22T07:45:36;6.43;;;1.70;;
48727;SDS011;34527;45.618;5.130;2023-12-22T07:48:02;3.35;;;1.73;;
48727;SDS011;34527;45.618;5.130;2023-12-22T07:50:28;7.07;;;1.70;;
48727;SDS011;34527;45.618;5.130;2023-12-22T07:52:54;4.90;;;1.83;;
48727;SDS011;34527;45.618;5.130;2023-12-22T07:55:20;5.57;;;1.73;;
48727;SDS011;34527;45.618;5.130;2023-12-22T07:57:45;6.32;;;2.05;;
48727;SDS011;34527;45.618;5.130;2023-12-22T08:00:11;9.75;;;2.10;;
48727;SDS011;34527;45.618;5.130;2023-12-22T08:02:37;6.97;;;1.83;;
48727;SDS011;34527;45.618;5.130;2023-12-22T08:05:03;5.75;;;1.80;;
48727;SDS011;34527;45.618;5.130;2023-12-22T08:07:29;4.78;;;1.73;;
48727;SDS011;34527;45.618;5.130;2023-12-22T08:09:55;7.50;;;2.00;;
48727;SDS011;34527;45.618;5.130;2023-12-22T08:12:21;3.40;;;2.10;;
48727;SDS011;34527;45.618;5.130;2023-12-22T08:14:47;6.50;;;2.00;;
48727;SDS011;34527;45.618;5.130;2023-12-22T08:17:13;5.25;;;2.05;;
48727;SDS011;34527;45.618;5.130;2023-12-22T08:19:39;8.90;;;2.10;;
48727;SDS011;34527;45.618;5.130;2023-12-22T08:22:08;9.75;;;2.58;;
48727;SDS011;34527;45.618;5.130;2023-12-22T08:24:35;9.10;;;2.25;;
48727;SDS011;34527;45.618;5.130;2023-12-22T08:27:01;6.30;;;2.20;;
48727;SDS011;34527;45.618;5.130;2023-12-22T08:29:26;5.72;;;2.80;;
48727;SDS011;34527;45.618;5.130;2023-12-22T08:31:52;9.68;;;3.33;;
48727;SDS011;34527;45.618;5.130;2023-12-22T08:34:18;6.97;;;3.10;;
48727;SDS011;34527;45.618;5.130;2023-12-22T08:36:44;9.55;;;3.25;;
48727;SDS011;34527;45.618;5.130;2023-12-22T08:39:10;9.57;;;4.10;;
48727;SDS011;34527;45.618;5.130;2023-12-22T08:41:35;7.40;;;2.55;;
48727;SDS011;34527;45.618;5.130;2023-12-22T08:44:05;8.02;;;3.55;;
48727;SDS011;34527;45.618;5.130;2023-12-22T08:46:31;9.93;;;3.10;;
48727;SDS011;34527;45.618;5.130;2023-12-22T08:48:57;7.68;;;3.50;;
48727;SDS011;34527;45.618;5.130;2023-12-22T08:51:24;7.45;;;2.40;;
48727;SDS011;34527;45.618;5.130;2023-12-22T08:53:53;7.75;;;2.50;;
48727;SDS011;34527;45.618;5.130;2023-12-22T08:56:20;5.03;;;2.08;;
48727;SDS011;34527;45.618;5.130;2023-12-22T08:58:46;9.13;;;2.20;;
48727;SDS011;34527;45.618;5.130;2023-12-22T09:01:15;7.93;;;2.03;;
48727;SDS011;34527;45.618;5.130;2023-12-22T09:03:41;9.73;;;2.00;;
48727;SDS011;34527;45.618;5.130;2023-12-22T09:06:11;8.23;;;2.30;;
48727;SDS011;34527;45.618;5.130;2023-12-22T09:08:41;7.70;;;2.65;;
48727;SDS011;34527;45.618;5.130;2023-12-22T09:11:07;6.75;;;2.15;;
48727;SDS011;34527;45.618;5.130;2023-12-22T09:13:33;5.53;;;2.60;;
48727;SDS011;34527;45.618;5.130;2023-12-22T09:16:00;4.18;;;2.05;;
48727;SDS011;34527;45.618;5.130;2023-12-22T09:18:27;6.13;;;2.45;;
48727;SDS011;34527;45.618;5.130;2023-12-22T09:20:53;6.50;;;2.88;;
48727;SDS011;34527;45.618;5.130;2023-12-22T09:23:19;6.93;;;2.78;;
48727;SDS011;34527;45.618;5.130;2023-12-22T09:25:46;8.00;;;2.35;;
48727;SDS011;34527;45.618;5.130;2023-12-22T09:28:12;8.15;;;2.30;;
48727;SDS011;34527;45.618;5.130;2023-12-22T09:30:37;8.80;;;2.45;;
48727;SDS011;34527;45.618;5.130;2023-12-22T09:33:03;7.28;;;2.80;;
48727;SDS011;34527;45.618;5.130;2023-12-22T09:35:29;5.47;;;2.50;;
48727;SDS011;34527;45.618;5.130;2023-12-22T09:37:55;10.15;;;2.45;;
48727;SDS011;34527;45.618;5.130;2023-12-22T09:40:20;6.32;;;2.45;;
48727;SDS011;34527;45.618;5.130;2023-12-22T09:42:47;10.30;;;2.50;;
48727;SDS011;34527;45.618;5.130;2023-12-22T09:45:13;10.82;;;2.80;;
48727;SDS011;34527;45.618;5.130;2023-12-22T09:47:44;6.22;;;2.53;;
48727;SDS011;34527;45.618;5.130;2023-12-22T09:50:10;4.70;;;1.77;;
48727;SDS011;34527;45.618;5.130;2023-12-22T09:52:36;7.18;;;2.45;;
48727;SDS011;34527;45.618;5.130;2023-12-22T09:55:03;6.45;;;2.47;;
48727;SDS011;34527;45.618;5.130;2023-12-22T09:57:32;10.15;;;2.50;;
48727;SDS011;34527;45.618;5.130;2023-12-22T09:59:59;7.85;;;2.20;;
48727;SDS011;34527;45.618;5.130;2023-12-22T10:02:31;5.40;;;1.98;;
48727;SDS011;34527;45.618;5.130;2023-12-22T10:04:59;8.23;;;1.95;;
48727;SDS011;34527;45.618;5.130;2023-12-22T10:07:25;10.40;;;2.33;;
48727;SDS011;34527;45.618;5.130;2023-12-22T10:09:51;7.38;;;2.80;;
48727;SDS011;34527;45.618;5.130;2023-12-22T10:12:18;6.22;;;2.55;;
48727;SDS011;34527;45.618;5.130;2023-12-22T10:14:45;6.47;;;1.90;;
48727;SDS011;34527;45.618;5.130;2023-12-22T10:17:12;4.85;;;1.90;;
48727;SDS011;34527;45.618;5.130;2023-12-22T10:19:39;3.88;;;1.92;;
48727;SDS011;34527;45.618;5.130;2023-12-22T10:22:05;4.93;;;2.00;;
48727;SDS011;34527;45.618;5.130;2023-12-22T10:24:46;11.50;;;2.55;;
48727;SDS011;34527;45.618;5.130;2023-12-22T10:29:47;6.28;;;2.00;;
48727;SDS011;34527;45.618;5.130;2023-12-22T10:32:14;9.85;;;2.33;;
48727;SDS011;34527;45.618;5.130;2023-12-22T10:34:40;6.97;;;2.00;;
48727;SDS011;34527;45.618;5.130;2023-12-22T10:37:06;6.00;;;1.80;;
48727;SDS011;34527;45.618;5.130;2023-12-22T10:39:32;7.65;;;1.90;;
48727;SDS011;34527;45.618;5.130;2023-12-22T10:41:58;3.78;;;1.75;;
48727;SDS011;34527;45.618;5.130;2023-12-22T10:44:27;6.68;;;2.10;;
48727;SDS011;34527;45.618;5.130;2023-12-22T10:46:54;12.30;;;2.97;;
48727;SDS011;34527;45.618;5.130;2023-12-22T10:49:20;6.68;;;2.20;;
48727;SDS011;34527;45.618;5.130;2023-12-22T10:51:46;6.28;;;2.80;;
48727;SDS011;34527;45.618;5.130;2023-12-22T10:54:12;7.07;;;2.35;;
48727;SDS011;34527;45.618;5.130;2023-12-22T10:56:38;6.60;;;2.30;;
48727;SDS011;34527;45.618;5.130;2023-12-22T10:59:05;4.93;;;2.08;;
48727;SDS011;34527;45.618;5.130;2023-12-22T11:01:31;3.95;;;1.80;;
48727;SDS011;34527;45.618;5.130;2023-12-22T11:04:01;4.30;;;2.33;;
48727;SDS011;34527;45.618;5.130;2023-12-22T11:06:29;4.57;;;2.25;;
48727;SDS011;34527;45.618;5.130;2023-12-22T11:08:58;5.28;;;1.73;;
48727;SDS011;34527;45.618;5.130;2023-12-22T11:11:34;6.03;;;1.92;;
48727;SDS011;34527;45.618;5.130;2023-12-22T11:14:04;3.58;;;1.23;;
48727;SDS011;34527;45.618;5.130;2023-12-22T11:16:31;4.55;;;1.80;;
48727;SDS011;34527;45.618;5.130;2023-12-22T11:19:01;5.40;;;1.92;;
48727;SDS011;34527;45.618;5.130;2023-12-22T11:21:27;5.50;;;1.75;;
48727;SDS011;34527;45.618;5.130;2023-12-22T11:23:54;6.65;;;1.80;;
48727;SDS011;34527;45.618;5.130;2023-12-22T11:26:20;5.82;;;1.98;;
48727;SDS011;34527;45.618;5.130;2023-12-22T11:28:49;3.35;;;1.60;;
48727;SDS011;34527;45.618;5.130;2023-12-22T11:31:16;5.68;;;1.80;;
48727;SDS011;34527;45.618;5.130;2023-12-22T11:33:49;8.13;;;1.92;;
48727;SDS011;34527;45.618;5.130;2023-12-22T11:36:16;4.82;;;1.90;;
48727;SDS011;34527;45.618;5.130;2023-12-22T11:38:42;5.28;;;1.50;;
48727;SDS011;34527;45.618;5.130;2023-12-22T11:41:11;2.95;;;1.48;;
48727;SDS011;34527;45.618;5.130;2023-12-22T11:43:41;2.70;;;1.30;;
48727;SDS011;34527;45.618;5.130;2023-12-22T11:46:08;1.88;;;1.23;;
48727;SDS011;34527;45.618;5.130;2023-12-22T11:48:34;6.53;;;1.92;;
48727;SDS011;34527;45.618;5.130;2023-12-22T11:51:00;4.38;;;1.35;;
48727;SDS011;34527;45.618;5.130;2023-12-22T11:53:29;4.20;;;1.40;;
48727;SDS011;34527;45.618;5.130;2023-12-22T11:56:01;2.67;;;1.02;;
48727;SDS011;34527;45.618;5.130;2023-12-22T11:58:47;2.72;;;1.15;;
48727;SDS011;34527;45.618;5.130;2023-12-22T12:01:18;4.57;;;1.38;;
48727;SDS011;34527;45.618;5.130;2023-12-22T12:03:48;2.38;;;1.42;;
48727;SDS011;34527;45.618;5.130;2023-12-22T12:08:58;2.45;;;0.90;;
48727;SDS011;34527;45.618;5.130;2023-12-22T12:14:32;3.22;;;1.50;;
48727;SDS011;34527;45.618;5.130;2023-12-22T12:17:06;3.28;;;1.00;;
48727;SDS011;34527;45.618;5.130;2023-12-22T12:19:39;2.88;;;1.30;;
48727;SDS011;34527;45.618;5.130;2023-12-22T12:22:11;3.22;;;1.30;;
48727;SDS011;34527;45.618;5.130;2023-12-22T12:24:37;1.48;;;1.23;;
48727;SDS011;34527;45.618;5.130;2023-12-22T12:27:04;2.25;;;1.20;;
48727;SDS011;34527;45.618;5.130;2023-12-22T12:29:30;2.17;;;1.27;;
48727;SDS011;34527;45.618;5.130;2023-12-22T12:32:06;2.58;;;1.20;;
48727;SDS011;34527;45.618;5.130;2023-12-22T12:34:32;1.42;;;0.98;;
48727;SDS011;34527;45.618;5.130;2023-12-22T12:36:58;1.40;;;1.20;;
48727;SDS011;34527;45.618;5.130;2023-12-22T12:39:25;1.88;;;1.10;;
48727;SDS011;34527;45.618;5.130;2023-12-22T12:41:56;1.77;;;0.70;;
48727;SDS011;34527;45.618;5.130;2023-12-22T12:44:25;2.40;;;1.23;;
48727;SDS011;34527;45.618;5.130;2023-12-22T12:46:51;0.82;;;0.82;;
48727;SDS011;34527;45.618;5.130;2023-12-22T12:49:17;0.90;;;0.90;;
48727;SDS011;34527;45.618;5.130;2023-12-22T12:51:44;1.02;;;0.80;;
48727;SDS011;34527;45.618;5.130;2023-12-22T12:54:11;1.52;;;0.60;;
48727;SDS011;34527;45.618;5.130;2023-12-22T12:56:38;0.77;;;0.60;;
48727;SDS011;34527;45.618;5.130;2023-12-22T12:59:08;1.23;;;0.73;;
48727;SDS011;34527;45.618;5.130;2023-12-22T13:01:41;1.02;;;0.65;;
48727;SDS011;34527;45.618;5.130;2023-12-22T13:04:08;0.70;;;0.70;;
48727;SDS011;34527;45.618;5.130;2023-12-22T13:06:34;1.05;;;0.65;;
48727;SDS011;34527;45.618;5.130;2023-12-22T13:09:00;1.70;;;1.17;;
48727;SDS011;34527;45.618;5.130;2023-12-22T13:11:26;1.20;;;0.80;;
48727;SDS011;34527;45.618;5.130;2023-12-22T13:13:54;0.60;;;0.60;;
48727;SDS011;34527;45.618;5.130;2023-12-22T13:16:20;1.02;;;0.60;;
48727;SDS011;34527;45.618;5.130;2023-12-22T13:18:48;0.98;;;0.80;;
48727;SDS011;34527;45.618;5.130;2023-12-22T13:21:14;0.90;;;0.70;;
48727;SDS011;34527;45.618;5.130;2023-12-22T13:23:40;0.80;;;0.60;;
48727;SDS011;34527;45.618;5.130;2023-12-22T13:26:16;0.93;;;0.47;;
48727;SDS011;34527;45.618;5.130;2023-12-22T13:28:43;2.47;;;0.85;;
48727;SDS011;34527;45.618;5.130;2023-12-22T13:31:12;0.60;;;0.60;;
48727;SDS011;34527;45.618;5.130;2023-12-22T13:33:43;0.82;;;0.73;;
48727;SDS011;34527;45.618;5.130;2023-12-22T13:36:09;0.98;;;0.50;;
48727;SDS011;34527;45.618;5.130;2023-12-22T13:38:35;0.57;;;0.57;;
48727;SDS011;34527;45.618;5.130;2023-12-22T13:41:01;1.73;;;1.00;;
48727;SDS011;34527;45.618;5.130;2023-12-22T13:43:28;1.15;;;0.98;;
48727;SDS011;34527;45.618;5.130;2023-12-22T13:45:54;0.68;;;0.60;;
48727;SDS011;34527;45.618;5.130;2023-12-22T13:48:20;0.65;;;0.57;;
48727;SDS011;34527;45.618;5.130;2023-12-22T13:50:55;0.60;;;0.60;;
48727;SDS011;34527;45.618;5.130;2023-12-22T13:53:23;0.95;;;0.57;;
48727;SDS011;34527;45.618;5.130;2023-12-22T13:55:59;0.40;;;0.40;;
48727;SDS011;34527;45.618;5.130;2023-12-22T13:58:25;1.05;;;0.50;;
48727;SDS011;34527;45.618;5.130;2023-12-22T14:00:52;0.52;;;0.52;;
48727;SDS011;34527;45.618;5.130;2023-12-22T14:03:18;0.82;;;0.82;;
48727;SDS011;34527;45.618;5.130;2023-12-22T14:05:50;0.60;;;0.60;;
48727;SDS011;34527;45.618;5.130;2023-12-22T14:08:18;1.80;;;0.95;;
48727;SDS011;34527;45.618;5.130;2023-12-22T14:10:52;0.80;;;0.80;;
48727;SDS011;34527;45.618;5.130;2023-12-22T14:15:44;0.90;;;0.70;;
48727;SDS011;34527;45.618;5.130;2023-12-22T14:18:10;1.10;;;0.90;;
48727;SDS011;34527;45.618;5.130;2023-12-22T14:20:35;0.90;;;0.80;;
48727;SDS011;34527;45.618;5.130;2023-12-22T14:23:01;0.98;;;0.80;;
48727;SDS011;34527;45.618;5.130;2023-12-22T14:25:27;1.35;;;0.80;;
48727;SDS011;34527;45.618;5.130;2023-12-22T14:27:53;1.38;;;1.00;;
48727;SDS011;34527;45.618;5.130;2023-12-22T14:30:22;1.38;;;1.00;;
48727;SDS011;34527;45.618;5.130;2023-12-22T14:32:48;1.20;;;0.90;;
48727;SDS011;34527;45.618;5.130;2023-12-22T14:35:14;2.25;;;1.00;;
48727;SDS011;34527;45.618;5.130;2023-12-22T14:37:39;2.40;;;1.00;;
48727;SDS011;34527;45.618;5.130;2023-12-22T14:40:05;1.52;;;1.00;;
48727;SDS011;34527;45.618;5.130;2023-12-22T14:42:31;1.00;;;0.90;;
48727;SDS011;34527;45.618;5.130;2023-12-22T14:44:57;0.93;;;0.90;;
48727;SDS011;34527;45.618;5.130;2023-12-22T14:47:23;2.38;;;1.00;;
48727;SDS011;34527;45.618;5.130;2023-12-22T14:49:49;0.60;;;0.60;;
48727;SDS011;34527;45.618;5.130;2023-12-22T14:52:14;0.70;;;0.70;;
48727;SDS011;34527;45.618;5.130;2023-12-22T14:54:40;0.75;;;0.75;;
48727;SDS011;34527;45.618;5.130;2023-12-22T14:57:05;1.65;;;1.55;;
48727;SDS011;34527;45.618;5.130;2023-12-22T14:59:31;1.00;;;0.80;;
48727;SDS011;34527;45.618;5.130;2023-12-22T15:01:57;1.55;;;1.00;;
48727;SDS011;34527;45.618;5.130;2023-12-22T15:04:22;1.00;;;0.98;;
48727;SDS011;34527;45.618;5.130;2023-12-22T15:06:48;1.00;;;0.90;;